Terminal Aerodrome Forecast
Issued by NWS Rapid City, SD

Home | Current Version | Previous Version | Graphics & Text | Print | Product List | Glossary On
Versions: 1 2 3 4 5 6 7 8 9 10 11 12 13 14 15 16
000
FTUS43 KUNR 210524
TAFRAP
TAF
KRAP 210524Z 2106/2206 15012KT P6SM SCT050 BKN120
     FM211100 12007KT P6SM BKN015
     FM211600 36008KT P6SM BKN100=

USA.gov is the U.S. government's official web portal to all federal, state and local government web resources and services.